createdAt,value
2024-04-30T00:01:05.375Z,2.30
2024-04-30T00:03:33.077Z,2.63
2024-04-30T00:06:00.767Z,2.67
2024-04-30T00:08:28.481Z,2.20
2024-04-30T00:10:56.171Z,2.45
2024-04-30T00:13:23.897Z,2.23
2024-04-30T00:15:51.608Z,2.42
2024-04-30T00:18:19.233Z,2.22
2024-04-30T00:20:46.859Z,2.47
2024-04-30T00:23:14.527Z,2.20
2024-04-30T00:25:42.238Z,2.40
2024-04-30T00:28:09.957Z,2.50
2024-04-30T00:30:38.070Z,2.58
2024-04-30T00:33:05.948Z,2.42
2024-04-30T00:35:33.673Z,1.98
2024-04-30T00:38:01.314Z,2.37
2024-04-30T00:40:29.004Z,2.20
2024-04-30T00:42:56.657Z,2.47
2024-04-30T00:45:24.383Z,2.00
2024-04-30T00:47:52.333Z,1.90
2024-04-30T00:50:20.100Z,2.30
2024-04-30T00:52:47.894Z,2.30
2024-04-30T00:55:15.638Z,2.10
2024-04-30T00:57:43.552Z,2.30
2024-04-30T01:00:11.561Z,2.45
2024-04-30T01:02:39.629Z,2.40
2024-04-30T01:05:07.414Z,2.30
2024-04-30T01:07:35.127Z,2.80
2024-04-30T01:10:02.897Z,2.10
2024-04-30T01:12:30.659Z,2.40
2024-04-30T01:14:58.343Z,2.43
2024-04-30T01:17:26.110Z,2.50
2024-04-30T01:19:53.775Z,2.28
2024-04-30T01:22:22.424Z,2.30
2024-04-30T01:24:50.128Z,2.95
2024-04-30T01:27:17.883Z,2.80
2024-04-30T01:29:45.505Z,2.95
2024-04-30T01:32:13.278Z,2.85
2024-04-30T01:34:41.579Z,2.60
2024-04-30T01:37:09.294Z,2.47
2024-04-30T01:39:36.983Z,2.50
2024-04-30T01:42:04.728Z,2.88
2024-04-30T01:44:32.427Z,2.40
2024-04-30T01:47:00.051Z,2.22
2024-04-30T01:49:27.775Z,2.63
2024-04-30T01:51:55.479Z,2.70
2024-04-30T01:54:23.145Z,2.60
2024-04-30T01:56:50.776Z,2.58
2024-04-30T01:59:18.452Z,2.58
2024-04-30T02:01:46.095Z,2.50
2024-04-30T02:04:13.852Z,2.67
2024-04-30T02:06:41.503Z,2.60
2024-04-30T02:09:09.819Z,3.08
2024-04-30T02:11:37.599Z,2.95
2024-04-30T02:14:05.255Z,3.13
2024-04-30T02:16:32.904Z,2.40
2024-04-30T02:19:00.641Z,2.88
2024-04-30T02:21:28.293Z,2.63
2024-04-30T02:23:56.006Z,3.08
2024-04-30T02:26:23.635Z,2.95
2024-04-30T02:28:51.300Z,2.83
2024-04-30T02:31:38.241Z,2.92
2024-04-30T02:34:26.504Z,2.80
2024-04-30T02:36:55.176Z,2.90
2024-04-30T02:39:23.015Z,2.95
2024-04-30T02:41:51.021Z,2.73
2024-04-30T02:44:18.685Z,2.50
2024-04-30T02:46:47.371Z,2.97
2024-04-30T02:49:15.171Z,3.03
2024-04-30T02:51:42.854Z,2.50
2024-04-30T02:54:10.508Z,2.50
2024-04-30T02:56:38.305Z,2.45
2024-04-30T02:59:05.947Z,2.65
2024-04-30T03:01:33.623Z,1.77
2024-04-30T03:04:02.006Z,2.40
2024-04-30T03:06:29.732Z,2.87
2024-04-30T03:08:57.378Z,2.28
2024-04-30T03:11:25.093Z,2.45
2024-04-30T03:13:52.751Z,2.13
2024-04-30T03:16:20.515Z,2.63
2024-04-30T03:18:48.283Z,2.40
2024-04-30T03:21:15.932Z,2.20
2024-04-30T03:23:43.569Z,2.90
2024-04-30T03:26:11.253Z,3.20
2024-04-30T03:28:38.934Z,2.15
2024-04-30T03:31:11.538Z,2.67
2024-04-30T03:33:39.338Z,2.22
2024-04-30T03:36:07.196Z,2.05
2024-04-30T03:38:39.468Z,2.28
2024-04-30T03:41:10.647Z,2.47
2024-04-30T03:43:39.688Z,1.67
2024-04-30T03:46:13.834Z,2.25
2024-04-30T03:48:45.309Z,1.73
2024-04-30T03:51:12.977Z,3.40
2024-04-30T03:53:41.076Z,2.50
2024-04-30T03:56:08.717Z,1.87
2024-04-30T03:58:36.442Z,2.15
2024-04-30T04:01:04.291Z,2.13
2024-04-30T04:03:32.071Z,3.78
2024-04-30T04:05:59.746Z,2.92
2024-04-30T04:08:27.426Z,2.10
2024-04-30T04:11:14.008Z,3.80
2024-04-30T04:14:00.184Z,2.50
2024-04-30T04:16:27.865Z,2.65
2024-04-30T04:18:58.509Z,2.58
2024-04-30T04:21:26.140Z,3.80
2024-04-30T04:23:53.782Z,3.90
2024-04-30T04:26:21.421Z,2.50
2024-04-30T04:28:49.117Z,3.15
2024-04-30T04:31:16.794Z,4.55
2024-04-30T04:33:44.443Z,4.13
2024-04-30T04:36:15.603Z,3.17
2024-04-30T04:38:43.391Z,3.38
2024-04-30T04:41:11.115Z,2.70
2024-04-30T04:43:38.925Z,3.70
2024-04-30T04:46:06.703Z,2.37
2024-04-30T04:48:34.516Z,3.25
2024-04-30T04:51:02.236Z,4.03
2024-04-30T04:53:29.868Z,4.20
2024-04-30T04:55:57.509Z,2.70
2024-04-30T04:58:25.142Z,3.20
2024-04-30T05:00:52.954Z,3.53
2024-04-30T05:03:20.623Z,2.53
2024-04-30T05:05:48.326Z,2.28
2024-04-30T05:08:16.021Z,2.47
2024-04-30T05:10:43.821Z,2.33
2024-04-30T05:13:11.572Z,2.40
2024-04-30T05:15:39.247Z,2.17
2024-04-30T05:18:06.944Z,3.00
2024-04-30T05:20:34.635Z,2.70
2024-04-30T05:23:02.304Z,2.30
2024-04-30T05:25:29.942Z,2.80
2024-04-30T05:27:57.643Z,2.20
2024-04-30T05:30:28.110Z,3.55
2024-04-30T05:32:55.890Z,2.78
2024-04-30T05:35:23.637Z,4.03
2024-04-30T05:37:51.278Z,4.15
2024-04-30T05:40:18.944Z,2.42
2024-04-30T05:42:46.588Z,3.65
2024-04-30T05:45:14.225Z,4.07
2024-04-30T05:47:42.434Z,3.80
2024-04-30T05:50:10.113Z,3.25
2024-04-30T05:52:37.842Z,3.78
2024-04-30T05:55:05.729Z,3.88
2024-04-30T05:57:33.425Z,4.13
2024-04-30T06:00:01.056Z,3.30
2024-04-30T06:02:28.716Z,2.72
2024-04-30T06:04:56.433Z,2.53
2024-04-30T06:07:24.338Z,3.70
2024-04-30T06:09:52.105Z,3.08
2024-04-30T06:12:19.770Z,3.50
2024-04-30T06:14:47.439Z,4.45
2024-04-30T06:17:17.200Z,4.07
2024-04-30T06:19:44.944Z,2.38
2024-04-30T06:22:12.665Z,3.67
2024-04-30T06:24:40.342Z,3.77
2024-04-30T06:27:08.000Z,3.03
2024-04-30T06:29:38.317Z,2.63
2024-04-30T06:32:06.687Z,2.38
2024-04-30T06:34:34.502Z,3.70
2024-04-30T06:37:02.331Z,2.83
2024-04-30T06:39:29.992Z,3.10
2024-04-30T06:41:57.647Z,3.83
2024-04-30T06:44:25.307Z,3.17
2024-04-30T06:46:52.936Z,3.47
2024-04-30T06:49:21.825Z,2.77
2024-04-30T06:51:50.566Z,3.55
2024-04-30T06:54:18.260Z,3.30
2024-04-30T06:56:45.920Z,3.53
2024-04-30T06:59:13.585Z,2.40
2024-04-30T07:01:42.268Z,3.23
2024-04-30T07:04:10.038Z,3.00
2024-04-30T07:06:37.712Z,2.55
2024-04-30T07:09:05.398Z,2.60
2024-04-30T07:11:33.103Z,2.05
2024-04-30T07:14:00.748Z,3.00
2024-04-30T07:16:28.405Z,2.88
2024-04-30T07:18:56.113Z,2.30
2024-04-30T07:21:23.740Z,2.60
2024-04-30T07:23:51.376Z,2.15
2024-04-30T07:26:19.317Z,2.53
2024-04-30T07:28:47.064Z,2.53
2024-04-30T07:31:14.763Z,2.95
2024-04-30T07:33:45.235Z,1.80
2024-04-30T07:36:12.939Z,2.38
2024-04-30T07:38:40.659Z,1.80
2024-04-30T07:41:08.316Z,2.90
2024-04-30T07:43:35.954Z,2.53
2024-04-30T07:46:05.337Z,3.88
2024-04-30T07:48:33.042Z,2.35
2024-04-30T07:51:00.719Z,2.23
2024-04-30T07:53:28.410Z,2.22
2024-04-30T07:55:56.069Z,2.70
2024-04-30T07:58:23.728Z,1.92
2024-04-30T08:00:51.454Z,1.58
2024-04-30T08:03:19.159Z,2.17
2024-04-30T08:05:46.860Z,1.85
2024-04-30T08:08:14.539Z,2.40
2024-04-30T08:10:42.318Z,1.52
2024-04-30T08:13:10.136Z,1.58
2024-04-30T08:15:37.813Z,2.20
2024-04-30T08:18:05.572Z,1.88
2024-04-30T08:20:33.288Z,2.55
2024-04-30T08:23:00.999Z,2.50
2024-04-30T08:25:28.665Z,2.00
2024-04-30T08:27:56.315Z,2.50
2024-04-30T08:30:23.959Z,2.13
2024-04-30T08:32:52.153Z,1.98
2024-04-30T08:35:19.883Z,1.60
2024-04-30T08:37:54.581Z,2.20
2024-04-30T08:40:26.618Z,1.80
2024-04-30T08:42:54.303Z,2.00
2024-04-30T08:45:23.076Z,1.60
2024-04-30T08:47:52.314Z,2.10
2024-04-30T08:50:22.769Z,1.70
2024-04-30T08:52:52.008Z,1.57
2024-04-30T08:55:20.671Z,1.65
2024-04-30T08:57:51.845Z,1.98
2024-04-30T09:00:19.804Z,2.13
2024-04-30T09:02:54.271Z,2.28
2024-04-30T09:05:23.467Z,2.43
2024-04-30T09:07:51.224Z,2.42
2024-04-30T09:10:18.924Z,2.10
2024-04-30T09:12:46.596Z,2.80
2024-04-30T09:15:18.056Z,2.13
2024-04-30T09:17:45.866Z,1.63
2024-04-30T09:20:13.658Z,1.75
2024-04-30T09:22:48.222Z,1.95
2024-04-30T09:25:16.599Z,2.00
2024-04-30T09:27:45.139Z,1.60
2024-04-30T09:30:19.790Z,2.53
2024-04-30T09:32:47.663Z,2.45
2024-04-30T09:35:28.572Z,1.50
2024-04-30T09:38:01.847Z,2.30
2024-04-30T09:40:32.920Z,2.25
2024-04-30T09:43:01.052Z,3.10
2024-04-30T09:45:30.540Z,2.45
2024-04-30T09:47:58.488Z,2.53
2024-04-30T09:50:26.153Z,2.15
2024-04-30T09:52:55.779Z,1.95
2024-04-30T09:55:25.638Z,2.37
2024-04-30T09:57:54.677Z,1.80
2024-04-30T10:00:25.990Z,2.58
2024-04-30T10:02:59.042Z,1.88
2024-04-30T10:05:29.632Z,2.67
2024-04-30T10:07:59.049Z,2.40
2024-04-30T10:10:32.858Z,2.03
2024-04-30T10:13:09.863Z,2.13
2024-04-30T10:15:37.806Z,2.13
2024-04-30T10:18:07.163Z,2.08
2024-04-30T10:20:34.881Z,1.73
2024-04-30T10:23:02.944Z,2.22
2024-04-30T10:25:30.888Z,1.98
2024-04-30T10:28:08.600Z,2.30
2024-04-30T10:30:36.576Z,2.00
2024-04-30T10:33:04.839Z,2.20
2024-04-30T10:35:42.408Z,2.42
2024-04-30T10:38:10.049Z,2.25
2024-04-30T10:40:38.019Z,2.50
2024-04-30T10:43:05.939Z,2.38
2024-04-30T10:45:33.679Z,2.43
2024-04-30T10:48:01.619Z,2.55
2024-04-30T10:50:29.993Z,2.58
2024-04-30T10:53:01.147Z,2.42
2024-04-30T10:55:28.985Z,2.60
2024-04-30T10:57:56.878Z,2.43
2024-04-30T11:00:25.675Z,2.65
2024-04-30T11:02:57.052Z,3.25
2024-04-30T11:05:24.848Z,3.10
2024-04-30T11:07:58.800Z,3.20
2024-04-30T11:10:28.595Z,2.87
2024-04-30T11:12:59.803Z,2.70
2024-04-30T11:15:27.680Z,3.38
2024-04-30T11:17:55.454Z,2.80
2024-04-30T11:20:23.232Z,3.03
2024-04-30T11:22:50.904Z,2.73
2024-04-30T11:25:18.735Z,2.92
2024-04-30T11:27:46.455Z,3.33
2024-04-30T11:30:14.140Z,3.33
2024-04-30T11:32:41.953Z,3.25
2024-04-30T11:35:09.719Z,2.60
2024-04-30T11:37:37.547Z,2.40
2024-04-30T11:40:05.624Z,2.67
2024-04-30T11:42:39.127Z,2.20
2024-04-30T11:45:15.023Z,2.45
2024-04-30T11:47:43.067Z,2.17
2024-04-30T11:50:10.870Z,2.45
2024-04-30T11:52:40.569Z,2.70
2024-04-30T11:55:08.669Z,2.88
2024-04-30T11:57:37.226Z,3.08
2024-04-30T12:00:05.277Z,2.63
2024-04-30T12:02:33.121Z,2.33
2024-04-30T12:05:02.160Z,2.70
2024-04-30T12:07:29.905Z,2.75
2024-04-30T12:09:57.592Z,2.70
2024-04-30T12:12:25.206Z,2.53
2024-04-30T12:14:52.860Z,2.75
2024-04-30T12:17:20.748Z,2.72
2024-04-30T12:19:48.433Z,2.63
2024-04-30T12:22:16.157Z,2.83
2024-04-30T12:24:43.797Z,2.93
2024-04-30T12:27:11.491Z,2.45
2024-04-30T12:29:39.149Z,3.53
2024-04-30T12:32:10.565Z,3.20
2024-04-30T12:34:39.233Z,2.90
2024-04-30T12:37:07.904Z,2.80
2024-04-30T12:39:35.748Z,3.53
2024-04-30T12:42:03.597Z,3.40
2024-04-30T12:44:31.285Z,3.28
2024-04-30T12:46:58.939Z,3.95
2024-04-30T12:49:26.763Z,2.90
2024-04-30T12:51:54.476Z,3.42
2024-04-30T12:54:22.185Z,3.17
2024-04-30T12:56:49.846Z,2.97
2024-04-30T12:59:17.502Z,2.83
2024-04-30T13:01:45.792Z,2.87
2024-04-30T13:04:13.553Z,2.60
2024-04-30T13:06:41.966Z,3.55
2024-04-30T13:09:09.829Z,2.75
2024-04-30T13:11:37.714Z,2.60
2024-04-30T13:14:05.447Z,3.47
2024-04-30T13:16:33.557Z,3.40
2024-04-30T13:19:01.383Z,3.92
2024-04-30T13:21:29.094Z,3.20
2024-04-30T13:23:56.729Z,3.53
2024-04-30T13:26:24.380Z,3.40
2024-04-30T13:28:52.102Z,3.50
2024-04-30T13:31:19.847Z,3.42
2024-04-30T13:33:47.527Z,4.70
2024-04-30T13:36:15.292Z,4.38
2024-04-30T13:38:42.940Z,3.97
2024-04-30T13:41:10.575Z,3.33
2024-04-30T13:43:38.599Z,2.92
2024-04-30T13:46:06.400Z,3.67
2024-04-30T13:48:34.162Z,2.97
2024-04-30T13:51:01.863Z,3.70
2024-04-30T13:53:29.491Z,3.33
2024-04-30T13:55:57.114Z,3.38
2024-04-30T13:58:24.763Z,3.88
2024-04-30T14:00:52.442Z,3.72
2024-04-30T14:03:20.155Z,2.90
2024-04-30T14:05:47.807Z,3.15
2024-04-30T14:08:15.484Z,3.17
2024-04-30T14:10:43.187Z,2.95
2024-04-30T14:13:11.753Z,2.70
2024-04-30T14:15:39.413Z,2.40
2024-04-30T14:18:07.429Z,2.28
2024-04-30T14:20:35.628Z,2.90
2024-04-30T14:23:03.259Z,2.28
2024-04-30T14:25:30.937Z,3.08
2024-04-30T14:27:58.580Z,2.10
2024-04-30T14:30:26.214Z,2.72
2024-04-30T14:32:53.974Z,2.92
2024-04-30T14:35:21.833Z,2.15
2024-04-30T14:37:49.520Z,2.85
2024-04-30T14:40:17.231Z,3.03
2024-04-30T14:42:44.889Z,3.45
2024-04-30T14:45:12.585Z,4.20
2024-04-30T14:47:41.411Z,4.18
2024-04-30T14:50:10.264Z,4.70
2024-04-30T14:52:38.097Z,6.03
2024-04-30T14:55:06.053Z,6.00
2024-04-30T14:57:33.729Z,5.80
2024-04-30T15:00:01.405Z,6.07
2024-04-30T15:02:29.075Z,5.53
2024-04-30T15:04:56.845Z,4.57
2024-04-30T15:07:24.592Z,7.03
2024-04-30T15:09:57.170Z,5.68
2024-04-30T15:12:24.827Z,5.63
2024-04-30T15:14:55.225Z,5.88
2024-04-30T15:17:25.332Z,5.57
2024-04-30T15:19:53.138Z,5.50
2024-04-30T15:22:20.879Z,5.85
2024-04-30T15:24:48.597Z,6.55
2024-04-30T15:27:16.254Z,6.90
2024-04-30T15:29:43.913Z,7.77
2024-04-30T15:32:11.610Z,6.05
2024-04-30T15:34:39.779Z,6.30
2024-04-30T15:37:07.467Z,6.03
2024-04-30T15:39:35.285Z,5.75
2024-04-30T15:42:02.924Z,6.03
2024-04-30T15:44:30.554Z,5.93
2024-04-30T15:46:58.207Z,6.70
2024-04-30T15:49:25.908Z,7.32
2024-04-30T15:51:53.547Z,6.18
2024-04-30T15:54:23.072Z,6.57
2024-04-30T15:56:58.067Z,6.35
2024-04-30T15:59:29.085Z,5.93
2024-04-30T16:01:57.002Z,5.40
2024-04-30T16:04:24.977Z,5.55
2024-04-30T16:06:52.792Z,5.47
2024-04-30T16:09:20.448Z,5.53
2024-04-30T16:11:48.168Z,5.07
2024-04-30T16:14:16.765Z,6.03
2024-04-30T16:16:44.519Z,5.63
2024-04-30T16:19:13.284Z,4.97
2024-04-30T16:21:41.078Z,5.50
2024-04-30T16:24:12.978Z,5.20
2024-04-30T16:26:41.483Z,4.55
2024-04-30T16:29:09.643Z,5.15
2024-04-30T16:31:37.311Z,4.47
2024-04-30T16:34:05.331Z,4.93
2024-04-30T16:36:33.171Z,4.88
2024-04-30T16:39:00.845Z,5.47
2024-04-30T16:41:28.573Z,5.30
2024-04-30T16:43:56.229Z,4.90
2024-04-30T16:46:23.882Z,4.82
2024-04-30T16:48:52.627Z,4.30
2024-04-30T16:51:20.493Z,4.03
2024-04-30T16:53:48.144Z,4.03
2024-04-30T16:56:15.850Z,4.13
2024-04-30T16:58:43.493Z,4.57
2024-04-30T17:01:11.366Z,4.80
2024-04-30T17:03:42.090Z,4.20
2024-04-30T17:06:12.833Z,4.60
2024-04-30T17:08:43.215Z,4.17
2024-04-30T17:11:11.301Z,4.47
2024-04-30T17:13:42.632Z,3.95
2024-04-30T17:16:26.858Z,4.10
2024-04-30T17:18:55.502Z,4.13
2024-04-30T17:21:23.436Z,4.03
2024-04-30T17:23:51.196Z,4.07
2024-04-30T17:26:26.414Z,4.28
2024-04-30T17:28:55.378Z,3.83
2024-04-30T17:31:23.209Z,4.03
2024-04-30T17:33:55.831Z,4.13
2024-04-30T17:36:23.715Z,4.38
2024-04-30T17:38:51.366Z,4.72
2024-04-30T17:41:27.214Z,4.10
2024-04-30T17:43:54.909Z,3.90
2024-04-30T17:46:25.242Z,4.10
2024-04-30T17:48:54.731Z,4.78
2024-04-30T17:51:22.578Z,4.93
2024-04-30T17:53:50.233Z,5.70
2024-04-30T17:56:18.489Z,6.07
2024-04-30T17:58:47.009Z,5.63
2024-04-30T18:01:17.237Z,6.03
2024-04-30T18:03:54.656Z,5.45
2024-04-30T18:06:23.275Z,5.50
2024-04-30T18:08:58.303Z,6.90
2024-04-30T18:11:26.741Z,5.83
2024-04-30T18:13:54.837Z,5.65
2024-04-30T18:16:25.727Z,5.68
2024-04-30T18:18:53.716Z,4.63
2024-04-30T18:21:23.028Z,4.47
2024-04-30T18:23:50.881Z,4.83
2024-04-30T18:26:18.564Z,4.35
2024-04-30T18:28:54.862Z,4.60
2024-04-30T18:31:23.655Z,4.18
2024-04-30T18:33:52.959Z,4.57
2024-04-30T18:36:23.432Z,4.00
2024-04-30T18:38:51.180Z,3.97
2024-04-30T18:41:25.051Z,4.45
2024-04-30T18:43:57.896Z,3.72
2024-04-30T18:46:25.574Z,3.40
2024-04-30T18:48:53.602Z,3.67
2024-04-30T18:51:21.598Z,4.30
2024-04-30T18:53:50.101Z,3.88
2024-04-30T18:56:18.651Z,4.05
2024-04-30T18:58:47.127Z,4.60
2024-04-30T19:01:16.160Z,3.33
2024-04-30T19:03:47.357Z,3.65
2024-04-30T19:06:19.227Z,3.50
2024-04-30T19:08:47.001Z,3.90
2024-04-30T19:11:14.813Z,4.00
2024-04-30T19:13:44.563Z,3.67
2024-04-30T19:16:12.422Z,3.85
2024-04-30T19:18:40.273Z,3.47
2024-04-30T19:21:08.188Z,3.20
2024-04-30T19:23:35.857Z,3.60
2024-04-30T19:26:04.022Z,3.67
2024-04-30T19:28:31.847Z,2.92
2024-04-30T19:30:59.712Z,2.97
2024-04-30T19:33:27.537Z,3.67
2024-04-30T19:35:55.270Z,4.18
2024-04-30T19:38:22.938Z,3.50
2024-04-30T19:40:50.605Z,3.63
2024-04-30T19:43:18.242Z,3.80
2024-04-30T19:45:47.335Z,3.65
2024-04-30T19:48:17.905Z,3.90
2024-04-30T19:50:47.300Z,3.40
2024-04-30T19:53:14.974Z,3.85
2024-04-30T19:55:42.859Z,3.85
2024-04-30T19:58:10.612Z,3.80
2024-04-30T20:00:38.480Z,3.33
2024-04-30T20:03:07.677Z,4.03
2024-04-30T20:05:36.743Z,3.70
2024-04-30T20:08:04.428Z,3.67
2024-04-30T20:10:32.076Z,3.30
2024-04-30T20:12:59.775Z,4.25
2024-04-30T20:15:27.505Z,3.53
2024-04-30T20:17:55.218Z,3.58
2024-04-30T20:20:22.914Z,3.72
2024-04-30T20:22:50.557Z,3.75
2024-04-30T20:25:18.203Z,3.90
2024-04-30T20:27:45.863Z,3.60
2024-04-30T20:30:13.520Z,4.32
2024-04-30T20:32:41.423Z,4.10
2024-04-30T20:35:09.229Z,4.43
2024-04-30T20:37:36.880Z,3.65
2024-04-30T20:40:04.811Z,3.90
2024-04-30T20:42:32.606Z,4.22
2024-04-30T20:45:00.351Z,4.00
2024-04-30T20:47:28.276Z,5.43
2024-04-30T20:49:55.950Z,5.63
2024-04-30T20:52:23.711Z,4.40
2024-04-30T20:54:51.425Z,4.22
2024-04-30T20:57:19.183Z,4.13
2024-04-30T20:59:46.824Z,4.30
2024-04-30T21:02:14.544Z,4.40
2024-04-30T21:04:42.198Z,4.33
2024-04-30T21:07:09.853Z,4.00
2024-04-30T21:09:37.565Z,4.45
2024-04-30T21:12:05.418Z,4.15
2024-04-30T21:14:33.052Z,5.05
2024-04-30T21:17:03.707Z,4.73
2024-04-30T21:19:32.356Z,4.50
2024-04-30T21:22:00.199Z,4.30
2024-04-30T21:24:27.949Z,4.50
2024-04-30T21:26:55.588Z,4.40
2024-04-30T21:29:24.724Z,4.80
2024-04-30T21:31:52.957Z,4.55
2024-04-30T21:34:20.784Z,4.57
2024-04-30T21:36:49.187Z,4.65
2024-04-30T21:39:16.896Z,4.72
2024-04-30T21:41:44.503Z,4.60
2024-04-30T21:44:12.154Z,4.85
2024-04-30T21:46:42.968Z,5.00
2024-04-30T21:49:12.614Z,5.20
2024-04-30T21:51:42.151Z,4.78
2024-04-30T21:54:10.594Z,4.80
2024-04-30T21:56:38.221Z,4.88
2024-04-30T21:59:05.847Z,4.80
2024-04-30T22:01:33.548Z,5.25
2024-04-30T22:04:01.380Z,5.32
2024-04-30T22:06:32.334Z,5.53
2024-04-30T22:09:01.049Z,6.03
2024-04-30T22:11:28.826Z,5.65
2024-04-30T22:13:56.478Z,5.47
2024-04-30T22:16:24.140Z,6.53
2024-04-30T22:18:51.874Z,6.33
2024-04-30T22:21:21.204Z,5.78
2024-04-30T22:23:50.317Z,6.20
2024-04-30T22:26:17.945Z,6.55
2024-04-30T22:28:45.664Z,5.47
2024-04-30T22:31:13.393Z,6.27
2024-04-30T22:33:41.269Z,5.35
2024-04-30T22:36:09.038Z,5.80
2024-04-30T22:38:37.181Z,5.60
2024-04-30T22:41:04.914Z,5.40
2024-04-30T22:43:32.615Z,6.23
2024-04-30T22:46:00.962Z,5.75
2024-04-30T22:48:28.923Z,6.00
2024-04-30T22:50:58.521Z,5.95
2024-04-30T22:53:29.108Z,5.60
2024-04-30T22:55:58.767Z,5.07
2024-04-30T22:58:26.432Z,4.85
2024-04-30T23:00:54.296Z,5.00
2024-04-30T23:03:22.151Z,4.82
2024-04-30T23:05:49.938Z,4.63
2024-04-30T23:08:17.583Z,4.90
2024-04-30T23:10:45.298Z,4.80
2024-04-30T23:13:12.966Z,5.18
2024-04-30T23:15:40.674Z,5.65
2024-04-30T23:18:08.435Z,5.95
2024-04-30T23:20:36.105Z,5.57
2024-04-30T23:23:03.753Z,5.93
2024-04-30T23:25:31.360Z,6.18
2024-04-30T23:27:59.068Z,6.00
2024-04-30T23:30:26.793Z,6.10
2024-04-30T23:32:54.522Z,5.77
2024-04-30T23:35:22.208Z,5.05
2024-04-30T23:37:49.841Z,5.43
2024-04-30T23:40:17.494Z,5.20
2024-04-30T23:42:45.185Z,5.03
2024-04-30T23:45:12.837Z,5.07
2024-04-30T23:47:40.479Z,5.40
2024-04-30T23:50:08.206Z,5.00
2024-04-30T23:52:35.823Z,5.00
2024-04-30T23:55:03.509Z,3.92
2024-04-30T23:57:31.217Z,4.90
2024-04-30T23:59:59.531Z,4.68
